createdAt,value
2022-08-05T00:00:50.374Z,50.866764
2022-08-05T00:01:49.861Z,50.866814
2022-08-05T00:02:51.648Z,50.866806
2022-08-05T00:03:49.703Z,50.866718
2022-08-05T00:04:55.498Z,50.866730
2022-08-05T00:06:06.562Z,50.866814
2022-08-05T00:06:51.875Z,50.866756
2022-08-05T00:08:00.060Z,50.866821
2022-08-05T00:08:50.671Z,50.866810
2022-08-05T00:09:49.659Z,50.866821
2022-08-05T00:10:49.657Z,50.866810
2022-08-05T00:11:56.034Z,50.866779
2022-08-05T00:12:56.811Z,50.866776
2022-08-05T00:13:52.969Z,50.866756
2022-08-05T00:14:51.641Z,50.866776
2022-08-05T00:15:54.872Z,50.866764
2022-08-05T00:16:53.094Z,50.866726
2022-08-05T00:17:49.591Z,50.866764
2022-08-05T00:18:49.579Z,50.866745
2022-08-05T00:20:01.974Z,50.866882
2022-08-05T00:20:50.602Z,50.866962
2022-08-05T00:21:49.574Z,50.866806
2022-08-05T00:22:57.383Z,50.866795
2022-08-05T00:23:53.606Z,50.866886
2022-08-05T00:24:55.063Z,50.866821
2022-08-05T00:25:49.542Z,50.866741
2022-08-05T00:26:51.675Z,50.866692
2022-08-05T00:27:49.521Z,50.866726
2022-08-05T00:28:50.219Z,50.866776
2022-08-05T00:29:50.230Z,50.866722
2022-08-05T00:30:52.078Z,50.866711
2022-08-05T00:35:05.595Z,50.866631
2022-08-05T00:36:16.304Z,50.866611
2022-08-05T00:37:11.701Z,50.866806
2022-08-05T00:37:54.208Z,50.866879
2022-08-05T00:38:52.615Z,50.866772
2022-08-05T00:39:58.132Z,50.866638
2022-08-05T00:40:53.392Z,50.866543
2022-08-05T00:41:55.473Z,50.866711
2022-08-05T00:42:51.435Z,50.866776
2022-08-05T00:43:51.421Z,50.866985
2022-08-05T00:44:51.422Z,50.866970
2022-08-05T00:45:51.402Z,50.866928
2022-08-05T00:46:53.939Z,50.866810
2022-08-05T00:47:56.553Z,50.866718
2022-08-05T00:48:52.372Z,50.866829
2022-08-05T00:49:51.907Z,50.866730
2022-08-05T00:50:51.384Z,50.866745
2022-08-05T00:51:52.310Z,50.866768
2022-08-05T00:52:53.345Z,50.866848
2022-08-05T00:54:02.722Z,50.866840
2022-08-05T00:54:52.334Z,50.866806
2022-08-05T00:55:51.362Z,50.866741
2022-08-05T00:56:51.939Z,50.866764
2022-08-05T00:57:58.431Z,50.866829
2022-08-05T00:58:52.303Z,50.866798
2022-08-05T00:59:51.306Z,50.866772
2022-08-05T01:00:51.363Z,50.866806
2022-08-05T01:01:51.374Z,50.866783
2022-08-05T01:02:51.295Z,50.866760
2022-08-05T01:03:51.268Z,50.866825
2022-08-05T01:04:51.286Z,50.866806
2022-08-05T01:05:51.568Z,50.866859
2022-08-05T01:06:52.054Z,50.866779
2022-08-05T01:08:40.698Z,50.866779
2022-08-05T01:08:52.224Z,50.866768
2022-08-05T01:09:55.718Z,50.866760
2022-08-05T01:10:51.610Z,50.866695
2022-08-05T01:11:51.740Z,50.866791
2022-08-05T01:13:00.397Z,50.866825
2022-08-05T01:13:57.373Z,50.866779
2022-08-05T01:14:52.166Z,50.866711
2022-08-05T01:15:51.171Z,50.866730
2022-08-05T01:16:52.231Z,50.866760
2022-08-05T01:17:53.992Z,50.866695
2022-08-05T01:18:56.402Z,50.866768
2022-08-05T01:20:00.722Z,50.866840
2022-08-05T01:20:52.117Z,50.866859
2022-08-05T01:21:51.138Z,50.866829
2022-08-05T01:22:51.115Z,50.866787
2022-08-05T01:23:53.178Z,50.866764
2022-08-05T01:24:51.096Z,50.866776
2022-08-05T01:25:53.620Z,50.866753
2022-08-05T01:26:51.080Z,50.866783
2022-08-05T01:27:55.476Z,50.866760
2022-08-05T01:28:51.054Z,50.866837
2022-08-05T01:29:51.725Z,50.866852
2022-08-05T01:30:53.757Z,50.866837
2022-08-05T01:31:51.029Z,50.866795
2022-08-05T01:32:51.033Z,50.866795
2022-08-05T01:33:51.955Z,50.866867
2022-08-05T01:34:51.012Z,50.866852
2022-08-05T01:35:53.281Z,50.866783
2022-08-05T01:36:50.995Z,50.866764
2022-08-05T01:37:50.984Z,50.866787
2022-08-05T01:38:51.029Z,50.866760
2022-08-05T01:39:51.006Z,50.866779
2022-08-05T01:40:50.959Z,50.866779
2022-08-05T01:41:50.953Z,50.866745
2022-08-05T01:42:50.965Z,50.866791
2022-08-05T01:43:50.965Z,50.866791
2022-08-05T01:44:54.159Z,50.866814
2022-08-05T01:45:56.603Z,50.866787
2022-08-05T01:46:51.915Z,50.866772
2022-08-05T01:47:54.422Z,50.866768
2022-08-05T01:48:50.903Z,50.866756
2022-08-05T01:50:02.078Z,50.866764
2022-08-05T01:50:51.877Z,50.866795
2022-08-05T01:51:52.049Z,50.866791
2022-08-05T01:52:50.908Z,50.866779
2022-08-05T01:53:57.303Z,50.866749
2022-08-05T01:54:52.790Z,50.866699
2022-08-05T01:55:50.846Z,50.866665
2022-08-05T01:58:13.648Z,50.866554
2022-08-05T01:58:18.740Z,50.866501
2022-08-05T01:58:52.097Z,50.866199
2022-08-05T01:59:50.820Z,50.866074
2022-08-05T02:00:50.832Z,50.866161
2022-08-05T02:01:50.813Z,50.866394
2022-08-05T02:02:53.636Z,50.866714
2022-08-05T02:03:50.797Z,50.866924
2022-08-05T02:04:50.781Z,50.866920
2022-08-05T02:05:50.786Z,50.866901
2022-08-05T02:06:51.575Z,50.866871
2022-08-05T02:07:59.846Z,50.866840
2022-08-05T02:08:58.267Z,50.866894
2022-08-05T02:09:51.746Z,50.866985
2022-08-05T02:10:50.736Z,50.866993
2022-08-05T02:11:52.234Z,50.866894
2022-08-05T02:12:50.973Z,50.866798
2022-08-05T02:13:53.764Z,50.866764
2022-08-05T02:14:50.696Z,50.866810
2022-08-05T02:15:50.689Z,50.866768
2022-08-05T02:16:52.193Z,50.866814
2022-08-05T02:18:30.966Z,50.866829
2022-08-05T02:18:51.676Z,50.866833
2022-08-05T02:19:50.658Z,50.866783
2022-08-05T02:20:50.657Z,50.866718
2022-08-05T02:21:51.587Z,50.866753
2022-08-05T02:22:50.634Z,50.866795
2022-08-05T02:23:50.621Z,50.866787
2022-08-05T02:24:51.396Z,50.866760
2022-08-05T02:25:50.730Z,50.866791
2022-08-05T02:26:53.932Z,50.866798
2022-08-05T02:27:58.911Z,50.866787
2022-08-05T02:28:51.586Z,50.866802
2022-08-05T02:29:59.423Z,50.866764
2022-08-05T02:30:54.318Z,50.866699
2022-08-05T02:31:50.555Z,50.866795
2022-08-05T02:32:50.560Z,50.866806
2022-08-05T02:33:57.871Z,50.866734
2022-08-05T02:34:55.041Z,50.866772
2022-08-05T02:35:56.280Z,50.866802
2022-08-05T02:36:52.525Z,50.866814
2022-08-05T02:37:53.968Z,50.866840
2022-08-05T02:38:52.792Z,50.866859
2022-08-05T02:39:51.757Z,50.866875
2022-08-05T02:40:50.487Z,50.866856
2022-08-05T02:42:00.581Z,50.866867
2022-08-05T02:42:52.972Z,50.866814
2022-08-05T02:44:02.222Z,50.866863
2022-08-05T02:44:52.089Z,50.866997
2022-08-05T02:45:52.294Z,50.866974
2022-08-05T02:46:58.663Z,50.866844
2022-08-05T02:48:07.017Z,50.866760
2022-08-05T02:48:51.424Z,50.866974
2022-08-05T02:49:51.094Z,50.866772
2022-08-05T02:50:50.441Z,50.866577
2022-08-05T02:52:04.006Z,50.866547
2022-08-05T02:52:51.400Z,50.866543
2022-08-05T02:53:50.383Z,50.866669
2022-08-05T02:54:52.144Z,50.866642
2022-08-05T02:55:54.139Z,50.866642
2022-08-05T02:56:51.366Z,50.866634
2022-08-05T02:58:09.414Z,50.866669
2022-08-05T02:58:52.675Z,50.866730
2022-08-05T02:59:52.023Z,50.866825
2022-08-05T03:00:50.325Z,50.866787
2022-08-05T03:01:50.403Z,50.866745
2022-08-05T03:02:50.322Z,50.866787
2022-08-05T03:04:03.195Z,50.866821
2022-08-05T03:04:53.158Z,50.866802
2022-08-05T03:06:54.658Z,50.866714
2022-08-05T03:06:55.565Z,50.866707
2022-08-05T03:08:06.733Z,50.866714
2022-08-05T03:08:52.213Z,50.866673
2022-08-05T03:09:51.986Z,50.866692
2022-08-05T03:11:02.350Z,50.866661
2022-08-05T03:11:56.042Z,50.866726
2022-08-05T03:12:51.887Z,50.866741
2022-08-05T03:13:51.718Z,50.866745
2022-08-05T03:14:51.228Z,50.866688
2022-08-05T03:15:50.210Z,50.866657
2022-08-05T03:16:51.804Z,50.866650
2022-08-05T03:17:50.204Z,50.866653
2022-08-05T03:18:50.192Z,50.866634
2022-08-05T03:19:50.186Z,50.866669
2022-08-05T03:20:50.391Z,50.866711
2022-08-05T03:21:50.204Z,50.866753
2022-08-05T03:22:50.617Z,50.866817
2022-08-05T03:23:50.158Z,50.866806
2022-08-05T03:24:51.166Z,50.866821
2022-08-05T03:26:04.779Z,50.866802
2022-08-05T03:26:51.140Z,50.866760
2022-08-05T03:27:59.936Z,50.866783
2022-08-05T03:28:51.103Z,50.866760
2022-08-05T03:30:08.049Z,50.866806
2022-08-05T03:30:51.083Z,50.866802
2022-08-05T03:31:57.417Z,50.866798
2022-08-05T03:32:51.080Z,50.866730
2022-08-05T03:33:53.077Z,50.866734
2022-08-05T03:34:51.337Z,50.866737
2022-08-05T03:35:50.047Z,50.866680
2022-08-05T03:36:50.051Z,50.866753
2022-08-05T03:37:50.044Z,50.866814
2022-08-05T03:38:53.372Z,50.866791
2022-08-05T03:40:00.838Z,50.866776
2022-08-05T03:40:51.056Z,50.866810
2022-08-05T03:41:50.009Z,50.866772
2022-08-05T03:42:51.713Z,50.866779
2022-08-05T03:44:08.020Z,50.866821
2022-08-05T03:44:50.984Z,50.866814
2022-08-05T03:45:58.117Z,50.866802
2022-08-05T03:46:50.969Z,50.866802
2022-08-05T03:47:49.980Z,50.866776
2022-08-05T03:48:50.619Z,50.866764
2022-08-05T03:49:52.054Z,50.866772
2022-08-05T03:50:49.934Z,50.866783
2022-08-05T03:52:38.780Z,50.866753
2022-08-05T03:55:51.171Z,50.866737
2022-08-05T03:55:52.225Z,50.866741
2022-08-05T03:55:54.207Z,50.866756
2022-08-05T03:56:11.707Z,50.866737
2022-08-05T03:56:50.893Z,50.866714
2022-08-05T03:57:50.249Z,50.866688
2022-08-05T03:58:51.121Z,50.866688
2022-08-05T03:59:55.022Z,50.866711
2022-08-05T04:00:51.410Z,50.866711
2022-08-05T04:01:49.892Z,50.866734
2022-08-05T04:02:58.696Z,50.866730
2022-08-05T04:04:09.146Z,50.866760
2022-08-05T04:04:50.818Z,50.866753
2022-08-05T04:05:49.810Z,50.866741
2022-08-05T04:06:51.162Z,50.866703
2022-08-05T04:07:57.903Z,50.866756
2022-08-05T04:08:50.787Z,50.866760
2022-08-05T04:09:53.828Z,50.866753
2022-08-05T04:10:49.781Z,50.866772
2022-08-05T04:11:50.697Z,50.866756
2022-08-05T04:12:49.753Z,50.866753
2022-08-05T04:13:53.402Z,50.866768
2022-08-05T04:14:49.749Z,50.866772
2022-08-05T04:16:02.764Z,50.866753
2022-08-05T04:16:50.720Z,50.866768
2022-08-05T04:17:57.168Z,50.866753
2022-08-05T04:18:54.210Z,50.866745
2022-08-05T04:19:54.325Z,50.866783
2022-08-05T04:20:49.702Z,50.866730
2022-08-05T04:22:09.390Z,50.866760
2022-08-05T04:22:50.674Z,50.866787
2022-08-05T04:24:04.716Z,50.866760
2022-08-05T04:24:52.552Z,50.866764
2022-08-05T04:25:57.123Z,50.866722
2022-08-05T04:26:50.646Z,50.866718
2022-08-05T04:27:57.395Z,50.866783
2022-08-05T04:28:51.895Z,50.866764
2022-08-05T04:29:49.641Z,50.866768
2022-08-05T04:30:49.601Z,50.866825
2022-08-05T04:31:50.655Z,50.866829
2022-08-05T04:32:49.633Z,50.866764
2022-08-05T04:34:17.872Z,50.866817
2022-08-05T04:34:50.600Z,50.866669
2022-08-05T04:36:11.084Z,50.866745
2022-08-05T04:36:50.593Z,50.866837
2022-08-05T04:38:03.012Z,50.866798
2022-08-05T04:38:50.976Z,50.866730
2022-08-05T04:39:52.928Z,50.866776
2022-08-05T04:40:50.882Z,50.866737
2022-08-05T04:41:51.217Z,50.866772
2022-08-05T04:42:49.701Z,50.866684
2022-08-05T04:43:52.810Z,50.866653
2022-08-05T04:44:49.498Z,50.866722
2022-08-05T04:45:55.613Z,50.866741
2022-08-05T04:46:50.493Z,50.866745
2022-08-05T04:47:49.532Z,50.866734
2022-08-05T04:48:49.461Z,50.866764
2022-08-05T04:50:01.879Z,50.866734
2022-08-05T04:51:01.870Z,50.866714
2022-08-05T04:51:50.447Z,50.866589
2022-08-05T04:52:50.429Z,50.866348
2022-08-05T04:53:49.432Z,50.866512
2022-08-05T04:54:49.579Z,50.866440
2022-08-05T04:56:14.812Z,50.866573
2022-08-05T04:56:50.416Z,50.866680
2022-08-05T04:57:54.059Z,50.866707
2022-08-05T04:58:50.388Z,50.866714
2022-08-05T04:59:49.383Z,50.866810
2022-08-05T05:00:50.785Z,50.866787
2022-08-05T05:02:06.927Z,50.866707
2022-08-05T05:02:50.424Z,50.866776
2022-08-05T05:03:49.352Z,50.866783
2022-08-05T05:04:50.541Z,50.866760
2022-08-05T05:06:40.020Z,50.866810
2022-08-05T05:06:51.940Z,50.866741
2022-08-05T05:07:56.212Z,50.866879
2022-08-05T05:08:50.312Z,50.866920
2022-08-05T05:09:49.306Z,50.866924
2022-08-05T05:10:55.899Z,50.866966
2022-08-05T05:11:55.681Z,50.866928
2022-08-05T05:12:50.581Z,50.866810
2022-08-05T05:13:49.284Z,50.866936
2022-08-05T05:14:50.758Z,50.867043
2022-08-05T05:15:57.177Z,50.867016
2022-08-05T05:16:50.519Z,50.867039
2022-08-05T05:17:56.360Z,50.866890
2022-08-05T05:19:09.222Z,50.866859
2022-08-05T05:19:51.224Z,50.866989
2022-08-05T05:20:50.455Z,50.866703
2022-08-05T05:21:49.224Z,50.866882
2022-08-05T05:22:50.199Z,50.867031
2022-08-05T05:24:03.991Z,50.866806
2022-08-05T05:24:56.758Z,50.866932
2022-08-05T05:25:50.169Z,50.866909
2022-08-05T05:26:51.926Z,50.867115
2022-08-05T05:27:53.980Z,50.866947
2022-08-05T05:28:50.154Z,50.866974
2022-08-05T05:30:05.071Z,50.866776
2022-08-05T05:30:50.140Z,50.866959
2022-08-05T05:31:49.296Z,50.867031
2022-08-05T05:32:49.235Z,50.867062
2022-08-05T05:33:59.677Z,50.867073
2022-08-05T05:34:52.499Z,50.866959
2022-08-05T05:35:49.093Z,50.866875
2022-08-05T05:36:51.233Z,50.866783
2022-08-05T05:37:59.593Z,50.866863
2022-08-05T05:38:50.077Z,50.867004
2022-08-05T05:39:49.156Z,50.867088
2022-08-05T05:40:51.267Z,50.867279
2022-08-05T05:41:54.027Z,50.867222
2022-08-05T05:42:50.048Z,50.867188
2022-08-05T05:43:57.293Z,50.866669
2022-08-05T05:44:50.020Z,50.866936
2022-08-05T05:45:49.013Z,50.866985
2022-08-05T05:46:49.177Z,50.867058
2022-08-05T05:48:06.141Z,50.867027
2022-08-05T05:48:49.980Z,50.867176
2022-08-05T05:49:52.628Z,50.867603
2022-08-05T05:50:49.970Z,50.867329
2022-08-05T05:51:49.957Z,50.867344
2022-08-05T05:52:49.210Z,50.867416
2022-08-05T05:53:57.284Z,50.867245
2022-08-05T05:54:51.274Z,50.866943
2022-08-05T05:55:52.470Z,50.866833
2022-08-05T05:56:50.655Z,50.866890
2022-08-05T05:57:52.409Z,50.866821
2022-08-05T05:58:48.925Z,50.866798
2022-08-05T05:59:49.203Z,50.866817
2022-08-05T06:00:48.891Z,50.866940
2022-08-05T06:01:57.631Z,50.867008
2022-08-05T06:02:49.879Z,50.867168
2022-08-05T06:04:01.256Z,50.867043
2022-08-05T06:04:49.939Z,50.867050
2022-08-05T06:05:53.962Z,50.866997
2022-08-05T06:06:49.845Z,50.866726
2022-08-05T06:07:57.834Z,50.866772
2022-08-05T06:08:49.847Z,50.866821
2022-08-05T06:09:59.820Z,50.866753
2022-08-05T06:10:52.923Z,50.866650
2022-08-05T06:11:59.337Z,50.866604
2022-08-05T06:12:49.801Z,50.866604
2022-08-05T06:13:53.809Z,50.866905
2022-08-05T06:14:49.788Z,50.866867
2022-08-05T06:16:30.805Z,50.866901
2022-08-05T06:16:49.760Z,50.866982
2022-08-05T06:17:52.807Z,50.866962
2022-08-05T06:18:48.751Z,50.866928
2022-08-05T06:19:56.861Z,50.866852
2022-08-05T06:20:49.732Z,50.866653
2022-08-05T06:21:49.829Z,50.866833
2022-08-05T06:22:49.712Z,50.866848
2022-08-05T06:23:49.856Z,50.866840
2022-08-05T06:24:48.873Z,50.866848
2022-08-05T06:26:12.138Z,50.866859
2022-08-05T06:26:51.964Z,50.866879
2022-08-05T06:28:10.501Z,50.866833
2022-08-05T06:28:49.674Z,50.866791
2022-08-05T06:30:02.700Z,50.866810
2022-08-05T06:30:50.657Z,50.866798
2022-08-05T06:31:48.670Z,50.866768
2022-08-05T06:32:50.560Z,50.866806
2022-08-05T06:34:08.025Z,50.866783
2022-08-05T06:34:53.495Z,50.866810
2022-08-05T06:36:07.066Z,50.866871
2022-08-05T06:36:57.107Z,50.866928
2022-08-05T06:37:57.857Z,50.867008
2022-08-05T06:38:49.579Z,50.867023
2022-08-05T06:39:48.653Z,50.866989
2022-08-05T06:40:49.450Z,50.867069
2022-08-05T06:41:48.574Z,50.866917
2022-08-05T06:42:48.562Z,50.866837
2022-08-05T06:43:57.634Z,50.866875
2022-08-05T06:44:50.094Z,50.866837
2022-08-05T06:46:06.552Z,50.866734
2022-08-05T06:46:51.110Z,50.866714
2022-08-05T06:48:46.858Z,50.866745
2022-08-05T06:48:56.470Z,50.866791
2022-08-05T06:50:01.543Z,50.866810
2022-08-05T06:50:49.983Z,50.866776
2022-08-05T06:51:48.491Z,50.866749
2022-08-05T06:53:03.630Z,50.866760
2022-08-05T06:53:53.547Z,50.866768
2022-08-05T06:54:53.283Z,50.866730
2022-08-05T06:55:48.454Z,50.866764
2022-08-05T06:56:54.950Z,50.866825
2022-08-05T06:57:57.478Z,50.866753
2022-08-05T06:58:49.417Z,50.866806
2022-08-05T06:59:56.490Z,50.866833
2022-08-05T07:00:49.481Z,50.866684
2022-08-05T07:01:52.852Z,50.866692
2022-08-05T07:02:48.398Z,50.866756
2022-08-05T07:03:50.070Z,50.866749
2022-08-05T07:04:48.376Z,50.866783
2022-08-05T07:05:48.369Z,50.866699
2022-08-05T07:06:50.469Z,50.866753
2022-08-05T07:07:48.368Z,50.866795
2022-08-05T07:08:51.932Z,50.866760
2022-08-05T07:09:49.335Z,50.866814
2022-08-05T07:10:52.541Z,50.866730
2022-08-05T07:11:51.692Z,50.866714
2022-08-05T07:12:49.378Z,50.866722
2022-08-05T07:13:59.261Z,50.866692
2022-08-05T07:14:49.294Z,50.866665
2022-08-05T07:16:01.602Z,50.866642
2022-08-05T07:17:59.876Z,50.866695
2022-08-05T07:18:02.423Z,50.866680
2022-08-05T07:18:49.268Z,50.866714
2022-08-05T07:20:31.481Z,50.866768
2022-08-05T07:20:50.255Z,50.866734
2022-08-05T07:21:59.881Z,50.866730
2022-08-05T07:22:49.234Z,50.866760
2022-08-05T07:23:49.159Z,50.866783
2022-08-05T07:24:52.711Z,50.866817
2022-08-05T07:25:56.423Z,50.866844
2022-08-05T07:26:49.203Z,50.866814
2022-08-05T07:27:57.363Z,50.866810
2022-08-05T07:28:49.193Z,50.866821
2022-08-05T07:30:24.260Z,50.866779
2022-08-05T07:30:52.720Z,50.866745
2022-08-05T07:31:54.685Z,50.866760
2022-08-05T07:32:50.885Z,50.866703
2022-08-05T07:33:48.161Z,50.866768
2022-08-05T07:34:48.162Z,50.866749
2022-08-05T07:36:04.970Z,50.866791
2022-08-05T07:36:49.142Z,50.866779
2022-08-05T07:37:48.159Z,50.866795
2022-08-05T07:38:48.111Z,50.866810
2022-08-05T07:40:04.004Z,50.866863
2022-08-05T07:40:49.139Z,50.866756
2022-08-05T07:42:13.588Z,50.866795
2022-08-05T07:42:49.095Z,50.866814
2022-08-05T07:43:48.073Z,50.866886
2022-08-05T07:44:48.082Z,50.866844
2022-08-05T07:45:57.623Z,50.866848
2022-08-05T07:46:49.767Z,50.866852
2022-08-05T07:47:48.040Z,50.866833
2022-08-05T07:49:02.984Z,50.866863
2022-08-05T07:49:54.241Z,50.866863
2022-08-05T07:50:49.022Z,50.866871
2022-08-05T07:51:53.841Z,50.866886
2022-08-05T07:52:49.015Z,50.866882
2022-08-05T07:53:50.087Z,50.866936
2022-08-05T07:54:49.182Z,50.866852
2022-08-05T07:56:05.490Z,50.866871
2022-08-05T07:57:01.749Z,50.866829
2022-08-05T07:57:58.826Z,50.867046
2022-08-05T07:58:55.059Z,50.867023
2022-08-05T07:59:49.171Z,50.866795
2022-08-05T08:00:47.966Z,50.866760
2022-08-05T08:01:52.356Z,50.866749
2022-08-05T08:03:15.060Z,50.866619
2022-08-05T08:03:51.365Z,50.866650
2022-08-05T08:04:48.698Z,50.866669
2022-08-05T08:05:49.604Z,50.866650
2022-08-05T08:06:47.911Z,50.866600
2022-08-05T08:07:59.133Z,50.866589
2022-08-05T08:08:48.879Z,50.866608
2022-08-05T08:09:48.078Z,50.866631
2022-08-05T08:10:48.976Z,50.866631
2022-08-05T08:11:59.005Z,50.866631
2022-08-05T08:12:49.750Z,50.866650
2022-08-05T08:14:00.402Z,50.866703
2022-08-05T08:14:48.855Z,50.866737
2022-08-05T08:16:34.791Z,50.866760
2022-08-05T08:16:51.204Z,50.866726
2022-08-05T08:17:52.512Z,50.866692
2022-08-05T08:18:50.142Z,50.866657
2022-08-05T08:20:21.418Z,50.866653
2022-08-05T08:21:03.114Z,50.866661
2022-08-05T08:21:48.785Z,50.866661
2022-08-05T08:22:47.760Z,50.866592
2022-08-05T08:24:02.530Z,50.866634
2022-08-05T08:24:51.954Z,50.866600
2022-08-05T08:25:59.979Z,50.866680
2022-08-05T08:26:48.729Z,50.866543
2022-08-05T08:27:51.249Z,50.866570
2022-08-05T08:28:59.455Z,50.866623
2022-08-05T08:30:06.485Z,50.866570
2022-08-05T08:30:49.832Z,50.866581
2022-08-05T08:31:48.381Z,50.866627
2022-08-05T08:32:47.695Z,50.866634
2022-08-05T08:33:51.625Z,50.866570
2022-08-05T08:34:48.662Z,50.866539
2022-08-05T08:35:53.969Z,50.866650
2022-08-05T08:36:54.014Z,50.866703
2022-08-05T08:37:51.835Z,50.866726
2022-08-05T08:38:53.478Z,50.866543
2022-08-05T08:39:49.676Z,50.866711
2022-08-05T08:40:51.472Z,50.866661
2022-08-05T08:41:51.299Z,50.866619
2022-08-05T08:42:51.045Z,50.866581
2022-08-05T08:45:20.620Z,50.866589
2022-08-05T08:45:25.208Z,50.866562
2022-08-05T08:45:48.572Z,50.866638
2022-08-05T08:46:47.592Z,50.866634
2022-08-05T08:48:11.849Z,50.866661
2022-08-05T08:49:07.900Z,50.866642
2022-08-05T08:50:22.566Z,50.866611
2022-08-05T08:51:23.311Z,50.866650
2022-08-05T08:52:06.135Z,50.866684
2022-08-05T08:52:51.826Z,50.866642
2022-08-05T08:53:47.524Z,50.866631
2022-08-05T08:54:47.518Z,50.866650
2022-08-05T08:56:04.734Z,50.866608
2022-08-05T08:56:49.728Z,50.866619
2022-08-05T08:57:48.427Z,50.866611
2022-08-05T08:58:48.868Z,50.866634
2022-08-05T08:59:47.520Z,50.866657
2022-08-05T09:00:47.493Z,50.866688
2022-08-05T09:01:57.460Z,50.866695
2022-08-05T09:02:48.452Z,50.866692
2022-08-05T09:03:47.566Z,50.866631
2022-08-05T09:04:57.792Z,50.866673
2022-08-05T09:06:08.501Z,50.866676
2022-08-05T09:06:49.956Z,50.866703
2022-08-05T09:07:57.769Z,50.866745
2022-08-05T09:08:48.389Z,50.866703
2022-08-05T09:09:47.387Z,50.866711
2022-08-05T09:10:47.392Z,50.866737
2022-08-05T09:11:50.789Z,50.866756
2022-08-05T09:12:50.828Z,50.866817
2022-08-05T09:14:09.786Z,50.866837
2022-08-05T09:14:57.460Z,50.866695
2022-08-05T09:15:48.351Z,50.866734
2022-08-05T09:16:48.814Z,50.866734
2022-08-05T09:17:49.706Z,50.866787
2022-08-05T09:18:47.317Z,50.866665
2022-08-05T09:20:01.827Z,50.866520
2022-08-05T09:20:48.308Z,50.866379
2022-08-05T09:22:23.205Z,50.866413
2022-08-05T09:22:51.680Z,50.866409
2022-08-05T09:23:47.280Z,50.866528
2022-08-05T09:24:47.271Z,50.866726
2022-08-05T09:26:02.518Z,50.866764
2022-08-05T09:26:48.252Z,50.866680
2022-08-05T09:28:04.857Z,50.866539
2022-08-05T09:28:48.238Z,50.866581
2022-08-05T09:29:47.990Z,50.866570
2022-08-05T09:30:47.291Z,50.866547
2022-08-05T09:32:40.772Z,50.866611
2022-08-05T09:32:48.317Z,50.866627
2022-08-05T09:33:47.191Z,50.866642
2022-08-05T09:34:47.197Z,50.866577
2022-08-05T09:35:47.178Z,50.866547
2022-08-05T09:36:55.251Z,50.866486
2022-08-05T09:38:12.500Z,50.866459
2022-08-05T09:38:48.669Z,50.866505
2022-08-05T09:39:52.324Z,50.866520
2022-08-05T09:40:52.516Z,50.866482
2022-08-05T09:41:47.672Z,50.866524
2022-08-05T09:42:48.348Z,50.866669
2022-08-05T09:43:49.441Z,50.866703
2022-08-05T09:44:50.461Z,50.866711
2022-08-05T09:46:06.791Z,50.866657
2022-08-05T09:46:51.684Z,50.866657
2022-08-05T09:47:56.007Z,50.866684
2022-08-05T09:48:55.482Z,50.866688
2022-08-05T09:50:02.269Z,50.866734
2022-08-05T09:50:48.065Z,50.866722
2022-08-05T09:51:50.040Z,50.866711
2022-08-05T09:52:47.094Z,50.866730
2022-08-05T09:53:54.443Z,50.866722
2022-08-05T09:54:48.042Z,50.866734
2022-08-05T09:55:58.643Z,50.866817
2022-08-05T09:56:51.750Z,50.866791
2022-08-05T09:57:47.023Z,50.866745
2022-08-05T09:58:47.417Z,50.866779
2022-08-05T09:59:46.996Z,50.866776
2022-08-05T10:00:46.981Z,50.866787
2022-08-05T10:01:47.985Z,50.866783
2022-08-05T10:02:48.056Z,50.866734
2022-08-05T10:03:58.738Z,50.866669
2022-08-05T10:04:47.954Z,50.866695
2022-08-05T10:05:46.958Z,50.866737
2022-08-05T10:06:49.928Z,50.866711
2022-08-05T10:08:36.790Z,50.866680
2022-08-05T10:08:53.976Z,50.866734
2022-08-05T10:09:47.945Z,50.866741
2022-08-05T10:10:48.202Z,50.866741
2022-08-05T10:11:46.902Z,50.866695
2022-08-05T10:12:49.961Z,50.866798
2022-08-05T10:13:48.195Z,50.866802
2022-08-05T10:14:46.877Z,50.866756
2022-08-05T10:15:46.888Z,50.866776
2022-08-05T10:16:52.785Z,50.866837
2022-08-05T10:17:56.689Z,50.866879
2022-08-05T10:18:48.846Z,50.866791
2022-08-05T10:20:04.000Z,50.866734
2022-08-05T10:20:48.416Z,50.866741
2022-08-05T10:21:46.843Z,50.866745
2022-08-05T10:22:48.681Z,50.866737
2022-08-05T10:23:59.899Z,50.866714
2022-08-05T10:24:47.806Z,50.866714
2022-08-05T10:25:46.809Z,50.866764
2022-08-05T10:26:51.551Z,50.866722
2022-08-05T10:28:12.846Z,50.866730
2022-08-05T10:28:47.863Z,50.866718
2022-08-05T10:30:06.913Z,50.866699
2022-08-05T10:32:51.664Z,50.866703
2022-08-05T10:32:52.922Z,50.866673
2022-08-05T10:32:59.559Z,50.866714
2022-08-05T10:33:52.252Z,50.866734
2022-08-05T10:34:47.725Z,50.866741
2022-08-05T10:35:49.690Z,50.866756
2022-08-05T10:36:48.740Z,50.866787
2022-08-05T10:37:46.771Z,50.866760
2022-08-05T10:38:46.711Z,50.866791
2022-08-05T10:39:58.960Z,50.866825
2022-08-05T10:40:47.697Z,50.866817
2022-08-05T10:41:47.402Z,50.866852
2022-08-05T10:42:46.675Z,50.866821
2022-08-05T10:43:46.659Z,50.866783
2022-08-05T10:44:46.660Z,50.866791
2022-08-05T10:45:46.650Z,50.866787
2022-08-05T10:46:46.639Z,50.866779
2022-08-05T10:47:56.183Z,50.866806
2022-08-05T10:48:57.356Z,50.866783
2022-08-05T10:49:49.100Z,50.866852
2022-08-05T10:50:47.605Z,50.866837
2022-08-05T10:51:57.585Z,50.866840
2022-08-05T10:52:49.453Z,50.866894
2022-08-05T10:53:46.599Z,50.866936
2022-08-05T10:54:46.979Z,50.866898
2022-08-05T10:56:03.656Z,50.866859
2022-08-05T10:56:49.276Z,50.866852
2022-08-05T10:57:46.564Z,50.866848
2022-08-05T10:58:48.675Z,50.866798
2022-08-05T11:00:02.878Z,50.866886
2022-08-05T11:00:48.523Z,50.866783
2022-08-05T11:01:54.233Z,50.866634
2022-08-05T11:02:50.498Z,50.866268
2022-08-05T11:03:46.560Z,50.866154
2022-08-05T11:04:46.496Z,50.866077
2022-08-05T11:05:46.520Z,50.865799
2022-08-05T11:06:46.510Z,50.865841
2022-08-05T11:08:01.453Z,50.865894
2022-08-05T11:08:47.467Z,50.865791
2022-08-05T11:09:47.144Z,50.865704
2022-08-05T11:10:50.283Z,50.865627
2022-08-05T11:11:53.527Z,50.865746
2022-08-05T11:12:54.270Z,50.865959
2022-08-05T11:13:55.040Z,50.865936
2022-08-05T11:15:11.519Z,50.866219
2022-08-05T11:16:00.662Z,50.866558
2022-08-05T11:16:57.187Z,50.866615
2022-08-05T11:17:57.318Z,50.866707
2022-08-05T11:18:47.415Z,50.866844
2022-08-05T11:20:17.625Z,50.866825
2022-08-05T11:20:47.381Z,50.866821
2022-08-05T11:21:49.559Z,50.866852
2022-08-05T11:22:46.371Z,50.866856
2022-08-05T11:24:04.102Z,50.866890
2022-08-05T11:25:16.507Z,50.866829
2022-08-05T11:26:05.098Z,50.866795
2022-08-05T11:26:49.694Z,50.866840
2022-08-05T11:27:51.836Z,50.866810